createdAt,value
2017-06-01T00:00:33.750Z,83.20
2017-06-01T00:03:01.959Z,82.70
2017-06-01T00:05:30.179Z,83.80
2017-06-01T00:07:58.401Z,83.90
2017-06-01T00:10:26.616Z,83.40
2017-06-01T00:12:54.833Z,83.00
2017-06-01T00:15:23.063Z,83.50
2017-06-01T00:17:51.276Z,84.60
2017-06-01T00:20:19.496Z,84.40
2017-06-01T00:22:47.709Z,84.80
2017-06-01T00:25:15.932Z,85.20
2017-06-01T00:27:44.152Z,85.30
2017-06-01T00:30:12.376Z,86.10
2017-06-01T00:32:40.594Z,86.10
2017-06-01T00:35:08.816Z,85.40
2017-06-01T00:37:37.033Z,85.60
2017-06-01T00:40:05.251Z,86.40
2017-06-01T00:42:33.484Z,86.30
2017-06-01T00:45:01.703Z,86.90
2017-06-01T00:47:29.919Z,87.70
2017-06-01T00:49:58.131Z,87.80
2017-06-01T00:52:26.356Z,88.40
2017-06-01T00:54:54.571Z,88.80
2017-06-01T00:57:22.787Z,89.00
2017-06-01T00:59:50.999Z,89.40
2017-06-01T01:02:19.227Z,89.30
2017-06-01T01:04:47.447Z,88.90
2017-06-01T01:07:15.664Z,88.60
2017-06-01T01:09:43.905Z,88.30
2017-06-01T01:12:12.136Z,88.30
2017-06-01T01:14:40.356Z,88.50
2017-06-01T01:17:08.583Z,88.70
2017-06-01T01:19:36.803Z,88.10
2017-06-01T01:22:05.031Z,87.70
2017-06-01T01:24:33.250Z,87.20
2017-06-01T01:27:01.469Z,87.30
2017-06-01T01:29:29.687Z,87.20
2017-06-01T01:31:57.901Z,87.00
2017-06-01T01:34:26.115Z,87.10
2017-06-01T01:36:54.327Z,88.20
2017-06-01T01:39:22.556Z,88.10
2017-06-01T01:41:50.768Z,87.50
2017-06-01T01:44:18.980Z,87.30
2017-06-01T01:46:47.198Z,87.20
2017-06-01T01:49:15.410Z,87.10
2017-06-01T01:51:43.635Z,87.70
2017-06-01T01:54:11.843Z,88.40
2017-06-01T01:56:40.072Z,88.40
2017-06-01T01:59:08.279Z,88.80
2017-06-01T02:01:36.507Z,89.60
2017-06-01T02:04:04.718Z,90.00
2017-06-01T02:06:32.944Z,89.80
2017-06-01T02:09:01.151Z,89.50
2017-06-01T02:11:29.362Z,88.60
2017-06-01T02:13:57.591Z,88.90
2017-06-01T02:16:25.807Z,89.30
2017-06-01T02:18:54.039Z,89.30
2017-06-01T02:21:22.279Z,89.00
2017-06-01T02:23:50.506Z,88.90
2017-06-01T02:26:18.720Z,89.10
2017-06-01T02:28:46.944Z,88.60
2017-06-01T02:31:15.160Z,88.00
2017-06-01T02:33:43.388Z,87.70
2017-06-01T02:36:11.600Z,87.70
2017-06-01T02:38:39.826Z,87.00
2017-06-01T02:41:08.043Z,87.20
2017-06-01T02:43:36.276Z,87.50
2017-06-01T02:46:04.487Z,87.40
2017-06-01T02:48:32.699Z,87.30
2017-06-01T02:51:00.922Z,87.60
2017-06-01T02:53:29.136Z,87.90
2017-06-01T02:55:57.359Z,89.10
2017-06-01T02:58:25.578Z,89.50
2017-06-01T03:00:53.803Z,89.60
2017-06-01T03:03:22.020Z,90.00
2017-06-01T03:05:50.238Z,90.00
2017-06-01T03:08:18.547Z,89.80
2017-06-01T03:10:46.684Z,90.10
2017-06-01T03:13:14.904Z,90.20
2017-06-01T03:15:43.119Z,90.00
2017-06-01T03:18:11.339Z,90.40
2017-06-01T03:20:39.560Z,90.60
2017-06-01T03:23:07.774Z,90.80
2017-06-01T03:25:36.000Z,91.00
2017-06-01T03:28:04.215Z,91.00
2017-06-01T03:30:32.427Z,90.70
2017-06-01T03:33:00.651Z,90.40
2017-06-01T03:35:28.863Z,90.40
2017-06-01T03:37:57.088Z,90.60
2017-06-01T03:40:25.299Z,90.80
2017-06-01T03:42:53.515Z,90.50
2017-06-01T03:45:21.731Z,90.70
2017-06-01T03:47:49.948Z,90.70
2017-06-01T03:50:18.164Z,90.70
2017-06-01T03:55:21.083Z,91.00
2017-06-01T03:57:49.307Z,91.20
2017-06-01T04:00:17.528Z,91.00
2017-06-01T04:02:45.743Z,90.80
2017-06-01T04:05:13.955Z,90.90
2017-06-01T04:07:42.195Z,91.00
2017-06-01T04:10:10.402Z,90.90
2017-06-01T04:12:38.619Z,90.60
2017-06-01T04:15:06.851Z,91.20
2017-06-01T04:17:35.064Z,90.90
2017-06-01T04:20:03.281Z,90.80
2017-06-01T04:22:31.496Z,90.50
2017-06-01T04:24:59.715Z,90.00
2017-06-01T04:27:27.931Z,88.70
2017-06-01T04:29:56.156Z,86.00
2017-06-01T04:32:24.370Z,85.90
2017-06-01T04:34:52.596Z,84.20
2017-06-01T04:37:20.815Z,82.00
2017-06-01T04:39:49.039Z,81.00
2017-06-01T04:42:17.250Z,81.80
2017-06-01T04:44:45.474Z,82.50
2017-06-01T04:47:13.735Z,78.60
2017-06-01T04:49:42.043Z,75.60
2017-06-01T04:52:10.203Z,73.40
2017-06-01T04:54:38.418Z,75.00
2017-06-01T04:57:06.636Z,78.20
2017-06-01T04:59:34.846Z,80.60
2017-06-01T05:02:03.074Z,80.60
2017-06-01T05:04:31.295Z,81.70
2017-06-01T05:06:59.516Z,80.00
2017-06-01T05:09:27.727Z,79.60
2017-06-01T05:11:55.947Z,77.90
2017-06-01T05:14:24.162Z,74.80
2017-06-01T05:16:52.383Z,70.60
2017-06-01T05:19:20.608Z,66.90
2017-06-01T05:21:48.826Z,64.70
2017-06-01T05:24:17.041Z,61.80
2017-06-01T05:26:45.268Z,58.70
2017-06-01T05:29:13.483Z,57.00
2017-06-01T05:31:41.725Z,54.10
2017-06-01T05:34:09.937Z,52.40
2017-06-01T05:36:38.164Z,53.20
2017-06-01T05:39:06.386Z,54.90
2017-06-01T05:41:34.606Z,51.20
2017-06-01T05:44:02.823Z,51.70
2017-06-01T05:46:31.039Z,51.80
2017-06-01T05:48:59.263Z,49.70
2017-06-01T05:51:27.480Z,47.70
2017-06-01T05:53:55.699Z,46.50
2017-06-01T05:56:23.915Z,46.20
2017-06-01T05:58:52.134Z,45.10
2017-06-01T06:01:20.346Z,43.70
2017-06-01T06:03:48.572Z,44.20
2017-06-01T06:06:16.792Z,44.50
2017-06-01T06:08:45.020Z,43.70
2017-06-01T06:11:13.231Z,45.10
2017-06-01T06:13:41.459Z,42.40
2017-06-01T06:16:09.683Z,41.40
2017-06-01T06:18:37.906Z,40.90
2017-06-01T06:21:06.132Z,41.20
2017-06-01T06:23:34.351Z,39.30
2017-06-01T06:26:02.575Z,39.60
2017-06-01T06:28:30.791Z,39.70
2017-06-01T06:30:59.015Z,38.40
2017-06-01T06:33:27.239Z,39.90
2017-06-01T06:35:55.459Z,42.20
2017-06-01T06:38:23.671Z,39.80
2017-06-01T06:40:51.904Z,37.70
2017-06-01T06:43:20.123Z,39.10
2017-06-01T06:45:48.347Z,37.90
2017-06-01T06:48:16.572Z,36.70
2017-06-01T06:50:44.816Z,39.00
2017-06-01T06:53:13.031Z,39.10
2017-06-01T06:55:41.242Z,37.80
2017-06-01T06:58:09.467Z,37.80
2017-06-01T07:00:37.690Z,36.50
2017-06-01T07:03:05.916Z,34.50
2017-06-01T07:05:34.128Z,33.00
2017-06-01T07:08:02.339Z,33.10
2017-06-01T07:10:30.550Z,32.80
2017-06-01T07:12:58.770Z,33.70
2017-06-01T07:15:26.984Z,47.50
2017-06-01T07:17:55.208Z,44.50
2017-06-01T07:20:23.436Z,41.20
2017-06-01T07:22:51.655Z,42.60
2017-06-01T07:25:19.877Z,49.60
2017-06-01T07:27:48.096Z,47.50
2017-06-01T07:30:16.312Z,43.10
2017-06-01T07:32:44.546Z,41.20
2017-06-01T07:35:12.762Z,37.50
2017-06-01T07:37:40.980Z,35.50
2017-06-01T07:40:09.198Z,34.20
2017-06-01T07:42:37.414Z,33.20
2017-06-01T07:45:05.643Z,34.60
2017-06-01T07:47:33.854Z,33.20
2017-06-01T07:50:02.095Z,32.40
2017-06-01T07:52:30.316Z,38.80
2017-06-01T07:54:58.538Z,38.50
2017-06-01T07:57:26.757Z,36.20
2017-06-01T07:59:54.984Z,36.90
2017-06-01T08:02:23.195Z,35.50
2017-06-01T08:04:51.415Z,40.30
2017-06-01T08:07:19.631Z,44.80
2017-06-01T08:09:47.851Z,41.50
2017-06-01T08:12:16.072Z,41.80
2017-06-01T08:14:44.315Z,41.00
2017-06-01T08:17:12.533Z,40.50
2017-06-01T08:19:40.747Z,42.90
2017-06-01T08:22:08.970Z,45.40
2017-06-01T08:24:37.195Z,46.10
2017-06-01T08:27:05.416Z,46.00
2017-06-01T08:29:33.648Z,43.50
2017-06-01T08:32:01.864Z,43.80
2017-06-01T08:34:30.082Z,43.20
2017-06-01T08:36:58.731Z,40.70
2017-06-01T08:39:26.951Z,41.00
2017-06-01T08:41:55.175Z,38.10
2017-06-01T08:44:23.393Z,39.20
2017-06-01T08:46:51.607Z,38.90
2017-06-01T08:49:19.841Z,40.20
2017-06-01T08:51:48.055Z,41.00
2017-06-01T08:54:16.275Z,40.20
2017-06-01T08:56:44.515Z,40.30
2017-06-01T08:59:12.733Z,39.80
2017-06-01T09:01:40.952Z,38.70
2017-06-01T09:04:09.171Z,36.00
2017-06-01T09:06:37.387Z,35.70
2017-06-01T09:09:05.619Z,35.50
2017-06-01T09:11:33.835Z,38.50
2017-06-01T09:14:02.048Z,36.00
2017-06-01T09:16:30.262Z,33.90
2017-06-01T09:18:58.488Z,36.30
2017-06-01T09:21:26.706Z,37.20
2017-06-01T09:23:54.938Z,36.20
2017-06-01T09:26:23.148Z,40.40
2017-06-01T09:28:51.366Z,42.50
2017-06-01T09:31:19.583Z,39.00
2017-06-01T09:33:47.820Z,37.80
2017-06-01T09:36:16.035Z,40.40
2017-06-01T09:38:44.257Z,37.90
2017-06-01T09:41:12.474Z,39.40
2017-06-01T09:43:40.691Z,35.10
2017-06-01T09:46:08.912Z,32.20
2017-06-01T09:48:37.130Z,33.60
2017-06-01T09:51:05.353Z,34.50
2017-06-01T09:53:33.575Z,35.70
2017-06-01T09:56:01.791Z,32.70
2017-06-01T09:58:30.017Z,29.30
2017-06-01T10:00:58.244Z,29.60
2017-06-01T10:03:26.455Z,27.10
2017-06-01T10:05:54.678Z,27.40
2017-06-01T10:08:22.892Z,29.50
2017-06-01T10:10:51.107Z,28.90
2017-06-01T10:13:19.325Z,29.70
2017-06-01T10:15:47.538Z,33.00
2017-06-01T10:18:15.769Z,31.90
2017-06-01T10:20:43.992Z,34.00
2017-06-01T10:23:12.209Z,30.70
2017-06-01T10:25:40.419Z,29.40
2017-06-01T10:28:08.647Z,30.40
2017-06-01T10:30:36.855Z,31.50
2017-06-01T10:33:05.084Z,29.00
2017-06-01T10:35:33.297Z,28.60
2017-06-01T10:38:01.522Z,29.30
2017-06-01T10:40:29.738Z,30.90
2017-06-01T10:42:57.983Z,30.50
2017-06-01T10:45:26.191Z,28.40
2017-06-01T10:47:54.407Z,30.10
2017-06-01T10:50:22.629Z,29.50
2017-06-01T10:52:50.853Z,28.00
2017-06-01T10:55:19.076Z,26.70
2017-06-01T10:57:47.303Z,26.70
2017-06-01T11:00:15.524Z,25.70
2017-06-01T11:02:43.739Z,27.50
2017-06-01T11:05:11.959Z,27.80
2017-06-01T11:07:40.174Z,28.20
2017-06-01T11:10:08.398Z,32.80
2017-06-01T11:12:36.610Z,35.00
2017-06-01T11:15:04.833Z,35.30
2017-06-01T11:17:33.048Z,33.10
2017-06-01T11:20:01.291Z,32.00
2017-06-01T11:22:29.507Z,33.20
2017-06-01T11:24:57.730Z,31.80
2017-06-01T11:27:25.951Z,29.80
2017-06-01T11:29:54.163Z,28.80
2017-06-01T11:32:22.384Z,29.80
2017-06-01T11:34:50.603Z,34.30
2017-06-01T11:37:18.823Z,33.50
2017-06-01T11:39:47.035Z,30.60
2017-06-01T11:42:15.263Z,28.40
2017-06-01T11:44:43.475Z,30.90
2017-06-01T11:47:11.699Z,30.30
2017-06-01T11:49:39.907Z,32.70
2017-06-01T11:52:08.131Z,33.70
2017-06-01T11:54:36.343Z,33.60
2017-06-01T11:57:04.595Z,29.60
2017-06-01T11:59:32.812Z,30.30
2017-06-01T12:02:01.026Z,29.40
2017-06-01T12:04:29.252Z,29.20
2017-06-01T12:06:57.466Z,28.50
2017-06-01T12:09:25.688Z,28.70
2017-06-01T12:11:53.918Z,31.10
2017-06-01T12:14:22.136Z,33.60
2017-06-01T12:16:50.346Z,30.00
2017-06-01T12:19:18.567Z,29.10
2017-06-01T12:21:47.365Z,29.40
2017-06-01T12:24:15.588Z,29.20
2017-06-01T12:26:44.207Z,31.50
2017-06-01T12:29:12.433Z,29.70
2017-06-01T12:31:40.647Z,31.30
2017-06-01T12:34:08.856Z,32.20
2017-06-01T12:36:37.081Z,30.60
2017-06-01T12:39:05.304Z,29.00
2017-06-01T12:41:33.523Z,29.50
2017-06-01T12:44:01.763Z,28.80
2017-06-01T12:46:29.989Z,29.50
2017-06-01T12:48:58.203Z,30.70
2017-06-01T12:51:26.424Z,31.60
2017-06-01T12:53:54.635Z,31.20
2017-06-01T12:56:22.864Z,29.80
2017-06-01T12:58:51.080Z,30.30
2017-06-01T13:01:19.312Z,32.10
2017-06-01T13:03:47.532Z,33.60
2017-06-01T13:06:15.756Z,32.60
2017-06-01T13:08:44.024Z,31.30
2017-06-01T13:11:12.205Z,32.00
2017-06-01T13:13:40.423Z,31.20
2017-06-01T13:16:08.652Z,32.10
2017-06-01T13:18:36.871Z,29.90
2017-06-01T13:21:05.124Z,33.90
2017-06-01T13:23:33.338Z,32.70
2017-06-01T13:26:01.556Z,31.90
2017-06-01T13:28:29.781Z,32.30
2017-06-01T13:30:57.995Z,30.60
2017-06-01T13:33:26.218Z,30.90
2017-06-01T13:35:54.436Z,30.80
2017-06-01T13:38:22.659Z,30.70
2017-06-01T13:40:50.875Z,31.00
2017-06-01T13:43:19.095Z,29.90
2017-06-01T13:45:47.315Z,31.80
2017-06-01T13:48:15.532Z,33.30
2017-06-01T13:50:43.750Z,30.50
2017-06-01T13:53:11.975Z,30.10
2017-06-01T13:55:40.196Z,31.30
2017-06-01T13:58:08.427Z,31.10
2017-06-01T14:00:36.647Z,30.40
2017-06-01T14:03:04.902Z,30.70
2017-06-01T14:05:33.120Z,30.50
2017-06-01T14:08:01.331Z,29.90
2017-06-01T14:10:29.556Z,32.20
2017-06-01T14:12:57.783Z,32.20
2017-06-01T14:15:26.023Z,32.60
2017-06-01T14:17:54.240Z,32.80
2017-06-01T14:20:22.471Z,32.70
2017-06-01T14:22:50.723Z,31.80
2017-06-01T14:25:18.942Z,32.50
2017-06-01T14:27:47.161Z,31.80
2017-06-01T14:30:15.385Z,32.10
2017-06-01T14:32:43.599Z,31.10
2017-06-01T14:35:11.821Z,31.30
2017-06-01T14:37:40.057Z,30.90
2017-06-01T14:40:08.300Z,31.70
2017-06-01T14:42:36.520Z,33.90
2017-06-01T14:45:04.735Z,32.40
2017-06-01T14:47:32.980Z,32.60
2017-06-01T14:50:01.197Z,32.60
2017-06-01T14:52:29.416Z,32.40
2017-06-01T14:54:57.627Z,33.00
2017-06-01T14:57:25.851Z,33.60
2017-06-01T14:59:54.067Z,32.90
2017-06-01T15:02:22.293Z,31.10
2017-06-01T15:04:50.508Z,31.30
2017-06-01T15:07:18.728Z,31.90
2017-06-01T15:09:46.939Z,31.60
2017-06-01T15:12:15.170Z,32.80
2017-06-01T15:14:43.384Z,32.60
2017-06-01T15:17:11.624Z,32.40
2017-06-01T15:19:39.843Z,32.90
2017-06-01T15:22:08.051Z,33.10
2017-06-01T15:24:36.285Z,33.30
2017-06-01T15:27:04.496Z,34.00
2017-06-01T15:29:32.726Z,35.30
2017-06-01T15:32:00.939Z,34.10
2017-06-01T15:34:29.164Z,33.20
2017-06-01T15:36:57.380Z,34.60
2017-06-01T15:39:25.603Z,35.00
2017-06-01T15:41:53.814Z,34.20
2017-06-01T15:44:22.040Z,35.40
2017-06-01T15:46:50.251Z,36.50
2017-06-01T15:49:18.492Z,37.70
2017-06-01T15:51:46.711Z,36.60
2017-06-01T15:54:14.931Z,36.60
2017-06-01T15:56:43.155Z,36.40
2017-06-01T15:59:11.397Z,36.60
2017-06-01T16:01:39.615Z,35.70
2017-06-01T16:04:07.828Z,34.80
2017-06-01T16:06:36.051Z,36.40
2017-06-01T16:09:04.267Z,35.60
2017-06-01T16:11:32.499Z,36.00
2017-06-01T16:14:00.715Z,37.10
2017-06-01T16:16:28.934Z,37.80
2017-06-01T16:18:57.155Z,36.80
2017-06-01T16:21:25.371Z,38.70
2017-06-01T16:23:53.595Z,37.90
2017-06-01T16:26:21.820Z,36.80
2017-06-01T16:28:50.038Z,38.10
2017-06-01T16:31:18.259Z,39.90
2017-06-01T16:33:46.467Z,39.30
2017-06-01T16:36:14.679Z,40.30
2017-06-01T16:38:42.903Z,39.60
2017-06-01T16:41:11.128Z,40.50
2017-06-01T16:43:39.347Z,40.30
2017-06-01T16:46:07.563Z,39.80
2017-06-01T16:48:35.787Z,39.80
2017-06-01T16:51:04.011Z,40.30
2017-06-01T16:53:32.235Z,39.80
2017-06-01T16:56:00.461Z,40.20
2017-06-01T16:58:28.682Z,39.90
2017-06-01T17:00:56.904Z,41.30
2017-06-01T17:03:25.138Z,41.30
2017-06-01T17:05:53.363Z,40.60
2017-06-01T17:08:21.591Z,40.80
2017-06-01T17:10:49.825Z,41.10
2017-06-01T17:13:18.047Z,41.10
2017-06-01T17:15:46.292Z,40.60
2017-06-01T17:18:14.515Z,40.40
2017-06-01T17:20:42.735Z,40.70
2017-06-01T17:23:10.951Z,41.10
2017-06-01T17:25:39.183Z,41.20
2017-06-01T17:28:07.395Z,41.30
2017-06-01T17:30:35.621Z,40.60
2017-06-01T17:33:03.839Z,41.90
2017-06-01T17:35:32.069Z,40.90
2017-06-01T17:38:00.279Z,41.80
2017-06-01T17:40:28.528Z,42.30
2017-06-01T17:42:56.741Z,41.30
2017-06-01T17:45:24.950Z,41.30
2017-06-01T17:47:53.172Z,42.60
2017-06-01T17:50:21.413Z,42.30
2017-06-01T17:52:49.639Z,43.00
2017-06-01T17:55:17.851Z,42.60
2017-06-01T17:57:46.075Z,42.40
2017-06-01T18:00:14.287Z,42.60
2017-06-01T18:02:42.512Z,42.70
2017-06-01T18:05:10.731Z,43.10
2017-06-01T18:07:38.947Z,42.00
2017-06-01T18:10:07.164Z,44.10
2017-06-01T18:12:35.391Z,43.20
2017-06-01T18:15:03.607Z,42.90
2017-06-01T18:17:31.830Z,43.60
2017-06-01T18:20:00.052Z,43.30
2017-06-01T18:22:28.263Z,43.70
2017-06-01T18:24:56.488Z,43.80
2017-06-01T18:27:24.708Z,43.80
2017-06-01T18:29:52.927Z,43.30
2017-06-01T18:32:21.153Z,44.00
2017-06-01T18:34:49.381Z,44.40
2017-06-01T18:37:17.606Z,45.30
2017-06-01T18:39:45.830Z,46.90
2017-06-01T18:42:14.414Z,44.60
2017-06-01T18:44:42.655Z,46.10
2017-06-01T18:47:10.876Z,45.40
2017-06-01T18:49:39.105Z,48.40
2017-06-01T18:52:07.335Z,46.40
2017-06-01T18:54:35.561Z,46.20
2017-06-01T18:57:03.787Z,47.80
2017-06-01T18:59:32.012Z,46.70
2017-06-01T19:02:00.232Z,47.50
2017-06-01T19:04:28.460Z,47.30
2017-06-01T19:06:56.681Z,47.60
2017-06-01T19:09:24.897Z,48.10
2017-06-01T19:11:53.127Z,48.00
2017-06-01T19:14:21.346Z,49.20
2017-06-01T19:16:49.567Z,48.90
2017-06-01T19:19:17.783Z,49.20
2017-06-01T19:21:45.999Z,49.90
2017-06-01T19:24:14.261Z,50.00
2017-06-01T19:26:42.467Z,49.70
2017-06-01T19:29:10.691Z,49.80
2017-06-01T19:31:38.903Z,50.40
2017-06-01T19:34:07.124Z,51.90
2017-06-01T19:36:35.344Z,51.90
2017-06-01T19:39:03.567Z,53.10
2017-06-01T19:41:31.788Z,53.70
2017-06-01T19:44:00.006Z,55.30
2017-06-01T19:46:28.223Z,55.80
2017-06-01T19:48:56.491Z,56.20
2017-06-01T19:51:24.704Z,57.70
2017-06-01T19:53:52.911Z,59.70
2017-06-01T19:56:21.135Z,60.30
2017-06-01T19:58:49.355Z,62.50
2017-06-01T20:01:17.602Z,64.60
2017-06-01T20:03:45.840Z,65.80
2017-06-01T20:06:14.059Z,66.60
2017-06-01T20:08:42.276Z,67.80
2017-06-01T20:11:10.496Z,67.00
2017-06-01T20:13:38.797Z,66.50
2017-06-01T20:16:07.272Z,66.60
2017-06-01T20:18:35.520Z,67.60
2017-06-01T20:21:03.788Z,67.20
2017-06-01T20:23:32.027Z,68.60
2017-06-01T20:26:00.248Z,68.70
2017-06-01T20:28:28.480Z,69.60
2017-06-01T20:30:56.692Z,69.40
2017-06-01T20:33:24.919Z,69.10
2017-06-01T20:35:53.132Z,68.20
2017-06-01T20:38:21.355Z,69.00
2017-06-01T20:40:49.572Z,67.80
2017-06-01T20:43:17.799Z,67.50
2017-06-01T20:45:46.020Z,67.60
2017-06-01T20:48:14.267Z,68.10
2017-06-01T20:50:42.475Z,68.40
2017-06-01T20:53:10.720Z,68.40
2017-06-01T20:55:38.932Z,68.60
2017-06-01T20:58:07.151Z,68.50
2017-06-01T21:00:41.272Z,68.00
2017-06-01T21:03:09.491Z,66.50
2017-06-01T21:05:37.741Z,67.60
2017-06-01T21:08:05.961Z,69.00
2017-06-01T21:10:34.172Z,68.60
2017-06-01T21:13:02.567Z,67.90
2017-06-01T21:15:30.806Z,67.10
2017-06-01T21:17:59.019Z,67.00
2017-06-01T21:20:27.251Z,67.60
2017-06-01T21:22:55.465Z,67.30
2017-06-01T21:25:23.687Z,66.80
2017-06-01T21:27:51.903Z,67.00
2017-06-01T21:30:20.134Z,66.90
2017-06-01T21:32:48.348Z,66.10
2017-06-01T21:35:16.576Z,67.00
2017-06-01T21:37:44.786Z,66.60
2017-06-01T21:40:13.018Z,67.00
2017-06-01T21:42:41.224Z,67.40
2017-06-01T21:45:09.445Z,67.70
2017-06-01T21:47:37.655Z,67.10
2017-06-01T21:50:05.922Z,67.40
2017-06-01T21:52:34.147Z,67.50
2017-06-01T21:55:02.358Z,67.90
2017-06-01T21:57:30.572Z,68.00
2017-06-01T21:59:58.787Z,68.40
2017-06-01T22:02:27.012Z,68.20
2017-06-01T22:04:55.226Z,68.30
2017-06-01T22:07:23.467Z,69.00
2017-06-01T22:09:51.676Z,68.50
2017-06-01T22:12:19.905Z,68.50
2017-06-01T22:14:48.115Z,68.60
2017-06-01T22:17:16.338Z,68.40
2017-06-01T22:19:44.559Z,67.20
2017-06-01T22:22:12.783Z,68.00
2017-06-01T22:24:41.000Z,67.00
2017-06-01T22:27:09.231Z,66.10
2017-06-01T22:29:37.443Z,65.60
2017-06-01T22:32:05.657Z,65.80
2017-06-01T22:34:33.879Z,66.60
2017-06-01T22:37:02.095Z,67.30
2017-06-01T22:39:30.327Z,66.60
2017-06-01T22:41:58.538Z,66.30
2017-06-01T22:44:26.763Z,65.50
2017-06-01T22:46:54.207Z,65.50
2017-06-01T22:49:22.427Z,66.70
2017-06-01T22:51:50.639Z,66.30
2017-06-01T22:54:18.863Z,67.00
2017-06-01T22:56:47.080Z,67.80
2017-06-01T22:59:15.302Z,68.20
2017-06-01T23:01:43.520Z,69.00
2017-06-01T23:04:11.743Z,70.00
2017-06-01T23:06:39.955Z,70.60
2017-06-01T23:09:08.178Z,70.60
2017-06-01T23:11:36.399Z,71.00
2017-06-01T23:14:04.613Z,70.40
2017-06-01T23:16:32.831Z,70.60
2017-06-01T23:19:01.052Z,70.60
2017-06-01T23:21:29.272Z,70.30
2017-06-01T23:23:57.488Z,68.80
2017-06-01T23:26:25.716Z,69.80
2017-06-01T23:28:53.931Z,68.80
2017-06-01T23:31:22.147Z,69.10
2017-06-01T23:33:50.363Z,68.60
2017-06-01T23:36:18.589Z,67.90
2017-06-01T23:38:46.802Z,68.20
2017-06-01T23:41:15.052Z,68.10
2017-06-01T23:43:43.260Z,67.70
2017-06-01T23:46:11.473Z,67.80
2017-06-01T23:48:39.699Z,67.90
2017-06-01T23:51:07.916Z,69.40
2017-06-01T23:53:36.146Z,70.20
2017-06-01T23:56:04.364Z,68.00
2017-06-01T23:58:32.590Z,65.00
